createdAt,value
2019-04-05T00:00:10.521Z,8.07
2019-04-05T00:02:38.635Z,9.13
2019-04-05T00:05:06.921Z,9.20
2019-04-05T00:07:35.184Z,8.05
2019-04-05T00:10:02.957Z,8.98
2019-04-05T00:12:31.231Z,8.32
2019-04-05T00:14:59.596Z,8.80
2019-04-05T00:17:27.802Z,9.52
2019-04-05T00:19:55.636Z,9.48
2019-04-05T00:22:23.839Z,9.77
2019-04-05T00:24:52.063Z,9.63
2019-04-05T00:27:20.180Z,9.10
2019-04-05T00:29:48.721Z,9.70
2019-04-05T00:32:16.897Z,10.20
2019-04-05T00:34:46.087Z,9.38
2019-04-05T00:37:14.229Z,9.93
2019-04-05T00:39:42.469Z,9.85
2019-04-05T00:42:10.740Z,13.10
2019-04-05T00:44:38.679Z,9.90
2019-04-05T00:47:06.205Z,9.68
2019-04-05T00:49:34.346Z,9.88
2019-04-05T00:52:02.609Z,9.38
2019-04-05T00:54:30.800Z,9.55
2019-04-05T00:56:59.174Z,9.40
2019-04-05T00:59:27.427Z,9.20
2019-04-05T01:01:55.524Z,9.93
2019-04-05T01:04:23.312Z,8.95
2019-04-05T01:06:51.541Z,9.55
2019-04-05T01:09:19.737Z,9.50
2019-04-05T01:11:47.633Z,9.02
2019-04-05T01:14:15.929Z,10.25
2019-04-05T01:16:44.152Z,9.55
2019-04-05T01:19:12.312Z,9.77
2019-04-05T01:21:41.135Z,9.38
2019-04-05T01:24:09.427Z,10.00
2019-04-05T01:26:37.039Z,9.70
2019-04-05T01:29:05.632Z,9.88
2019-04-05T01:31:35.308Z,10.57
2019-04-05T01:34:05.672Z,9.82
2019-04-05T01:36:34.408Z,9.65
2019-04-05T01:39:02.325Z,10.75
2019-04-05T01:41:31.738Z,11.02
2019-04-05T01:43:59.565Z,11.32
2019-04-05T01:46:27.761Z,10.35
2019-04-05T01:48:55.614Z,10.88
2019-04-05T01:51:23.646Z,10.77
2019-04-05T01:53:52.395Z,10.75
2019-04-05T01:56:20.251Z,11.05
2019-04-05T01:58:48.470Z,11.70
2019-04-05T02:01:16.374Z,11.55
2019-04-05T02:03:44.636Z,10.68
2019-04-05T02:06:12.519Z,11.52
2019-04-05T02:08:40.519Z,11.40
2019-04-05T02:11:08.557Z,11.68
2019-04-05T02:13:37.384Z,11.80
2019-04-05T02:16:06.846Z,13.07
2019-04-05T02:18:33.409Z,11.63
2019-04-05T02:21:01.353Z,11.93
2019-04-05T02:23:29.322Z,11.02
2019-04-05T02:25:57.821Z,10.98
2019-04-05T02:28:26.362Z,11.68
2019-04-05T02:30:54.574Z,12.32
2019-04-05T02:33:23.417Z,12.40
2019-04-05T02:35:51.305Z,9.95
2019-04-05T02:38:19.449Z,11.48
2019-04-05T02:40:47.362Z,9.98
2019-04-05T02:43:16.391Z,13.23
2019-04-05T02:45:44.193Z,12.05
2019-04-05T02:48:12.282Z,10.20
2019-04-05T02:50:40.931Z,11.70
2019-04-05T02:53:08.998Z,11.55
2019-04-05T02:55:37.688Z,13.30
2019-04-05T02:58:05.900Z,15.07
2019-04-05T03:00:34.403Z,14.70
2019-04-05T03:03:03.332Z,14.13
2019-04-05T03:05:31.112Z,15.13
2019-04-05T03:07:59.240Z,13.27
2019-04-05T03:10:48.216Z,13.45
2019-04-05T03:13:16.320Z,12.13
2019-04-05T03:15:44.163Z,11.52
2019-04-05T03:18:12.281Z,11.27
2019-04-05T03:20:40.435Z,12.52
2019-04-05T03:23:08.525Z,13.23
2019-04-05T03:25:36.887Z,12.30
2019-04-05T03:28:04.758Z,12.70
2019-04-05T03:30:32.715Z,11.18
2019-04-05T03:33:00.576Z,8.82
2019-04-05T03:35:29.078Z,11.63
2019-04-05T03:37:57.097Z,13.13
2019-04-05T03:40:25.769Z,12.93
2019-04-05T03:42:53.853Z,12.90
2019-04-05T03:45:22.071Z,11.93
2019-04-05T03:47:50.220Z,11.15
2019-04-05T03:50:18.522Z,11.60
2019-04-05T03:52:46.569Z,11.63
2019-04-05T03:55:14.799Z,10.90
2019-04-05T03:57:43.421Z,11.52
2019-04-05T04:00:10.640Z,7.62
2019-04-05T04:02:38.850Z,6.80
2019-04-05T04:05:06.905Z,7.72
2019-04-05T04:07:34.973Z,8.30
2019-04-05T04:10:03.100Z,10.25
2019-04-05T04:12:31.261Z,8.10
2019-04-05T04:15:13.968Z,10.18
2019-04-05T04:17:41.731Z,7.18
2019-04-05T04:20:11.011Z,8.77
2019-04-05T04:22:39.095Z,8.32
2019-04-05T04:25:09.777Z,9.90
2019-04-05T04:27:38.932Z,9.88
2019-04-05T04:30:08.914Z,11.10
2019-04-05T04:32:37.987Z,11.02
2019-04-05T04:35:06.348Z,14.45
2019-04-05T04:37:36.259Z,15.73
2019-04-05T04:40:05.028Z,16.45
2019-04-05T04:42:33.093Z,15.73
2019-04-05T04:45:12.152Z,15.70
2019-04-05T04:47:29.224Z,15.48
2019-04-05T04:49:57.604Z,14.48
2019-04-05T04:52:26.188Z,13.62
2019-04-05T04:54:54.741Z,13.45
2019-04-05T04:57:22.547Z,11.52
2019-04-05T04:59:50.616Z,10.55
2019-04-05T05:02:18.712Z,10.68
2019-04-05T05:04:46.824Z,11.37
2019-04-05T05:07:15.233Z,12.55
2019-04-05T05:09:43.401Z,11.63
2019-04-05T05:12:11.152Z,14.27
2019-04-05T05:14:39.446Z,15.43
2019-04-05T05:17:07.506Z,15.15
2019-04-05T05:19:35.592Z,14.27
2019-04-05T05:22:03.423Z,13.00
2019-04-05T05:24:31.378Z,14.98
2019-04-05T05:26:59.578Z,14.18
2019-04-05T05:29:27.691Z,13.13
2019-04-05T05:31:55.480Z,12.65
2019-04-05T05:34:23.610Z,11.25
2019-04-05T05:36:51.471Z,9.23
2019-04-05T05:39:20.066Z,9.57
2019-04-05T05:41:48.178Z,10.53
2019-04-05T05:44:16.285Z,10.43
2019-04-05T05:46:44.356Z,10.18
2019-04-05T05:49:12.530Z,11.63
2019-04-05T05:51:40.765Z,11.35
2019-04-05T05:54:09.098Z,9.55
2019-04-05T05:56:37.169Z,11.38
2019-04-05T05:59:05.837Z,9.93
2019-04-05T06:01:33.927Z,9.27
2019-04-05T06:04:01.983Z,8.80
2019-04-05T06:06:29.865Z,7.47
2019-04-05T06:08:57.479Z,6.95
2019-04-05T06:11:25.589Z,9.00
2019-04-05T06:13:54.146Z,7.40
2019-04-05T06:16:22.209Z,7.07
2019-04-05T06:18:50.324Z,7.90
2019-04-05T06:21:18.468Z,8.60
2019-04-05T06:23:46.762Z,8.07
2019-04-05T06:26:14.609Z,9.15
2019-04-05T06:28:43.031Z,8.50
2019-04-05T06:31:11.069Z,8.65
2019-04-05T06:33:39.152Z,8.05
2019-04-05T06:36:08.177Z,8.52
2019-04-05T06:38:36.259Z,9.07
2019-04-05T06:41:05.499Z,9.07
2019-04-05T06:43:33.572Z,8.60
2019-04-05T06:46:01.867Z,7.95
2019-04-05T06:48:29.877Z,8.77
2019-04-05T06:50:57.905Z,8.57
2019-04-05T06:53:25.323Z,8.23
2019-04-05T06:55:53.429Z,9.10
2019-04-05T06:58:28.932Z,8.30
2019-04-05T07:00:56.839Z,8.85
2019-04-05T07:03:17.618Z,7.82
2019-04-05T07:05:45.495Z,7.70
2019-04-05T07:08:13.568Z,8.15
2019-04-05T07:10:41.632Z,8.10
2019-04-05T07:13:09.900Z,8.63
2019-04-05T07:15:38.205Z,8.07
2019-04-05T07:18:06.052Z,8.10
2019-04-05T07:20:33.839Z,7.68
2019-04-05T07:23:01.894Z,8.63
2019-04-05T07:25:30.018Z,8.50
2019-04-05T07:27:58.113Z,7.53
2019-04-05T07:30:28.718Z,7.30
2019-04-05T07:32:54.282Z,7.57
2019-04-05T07:35:32.774Z,8.02
2019-04-05T07:37:50.425Z,7.68
2019-04-05T07:40:18.235Z,7.30
2019-04-05T07:42:47.800Z,8.27
2019-04-05T07:45:15.566Z,7.45
2019-04-05T07:47:43.416Z,7.15
2019-04-05T07:50:11.857Z,6.93
2019-04-05T07:52:39.799Z,6.30
2019-04-05T07:55:08.034Z,7.80
2019-04-05T07:57:36.209Z,6.68
2019-04-05T08:00:04.718Z,7.05
2019-04-05T08:02:32.899Z,6.82
2019-04-05T08:05:01.221Z,6.62
2019-04-05T08:07:29.441Z,5.93
2019-04-05T08:09:57.488Z,6.50
2019-04-05T08:12:25.480Z,7.00
2019-04-05T08:14:54.079Z,6.45
2019-04-05T08:17:22.332Z,6.28
2019-04-05T08:19:50.623Z,6.20
2019-04-05T08:22:18.204Z,6.80
2019-04-05T08:24:46.355Z,6.22
2019-04-05T08:27:14.537Z,6.40
2019-04-05T08:29:42.630Z,6.53
2019-04-05T08:32:14.690Z,6.70
2019-04-05T08:34:39.057Z,6.70
2019-04-05T08:37:06.909Z,5.37
2019-04-05T08:39:34.965Z,4.82
2019-04-05T08:42:02.830Z,5.18
2019-04-05T08:44:31.346Z,5.55
2019-04-05T08:46:59.576Z,6.12
2019-04-05T08:49:28.264Z,5.97
2019-04-05T08:51:56.358Z,6.12
2019-04-05T08:54:32.527Z,6.37
2019-04-05T08:56:53.108Z,5.93
2019-04-05T08:59:21.266Z,6.40
2019-04-05T09:01:49.616Z,7.20
2019-04-05T09:04:17.739Z,6.65
2019-04-05T09:06:45.907Z,7.93
2019-04-05T09:09:14.180Z,7.90
2019-04-05T09:11:42.397Z,8.07
2019-04-05T09:14:10.529Z,7.75
2019-04-05T09:16:38.705Z,7.85
2019-04-05T09:19:06.684Z,7.15
2019-04-05T09:21:34.759Z,7.32
2019-04-05T09:24:02.816Z,8.50
2019-04-05T09:26:30.883Z,8.82
2019-04-05T09:28:59.475Z,7.60
2019-04-05T09:31:27.628Z,7.12
2019-04-05T09:33:55.824Z,7.40
2019-04-05T09:36:23.925Z,7.72
2019-04-05T09:38:52.042Z,7.28
2019-04-05T09:41:20.495Z,8.65
2019-04-05T09:43:48.285Z,8.80
2019-04-05T09:46:16.510Z,8.75
2019-04-05T09:48:44.692Z,8.65
2019-04-05T09:51:12.828Z,7.87
2019-04-05T09:53:40.898Z,8.48
2019-04-05T09:56:09.318Z,8.02
2019-04-05T09:58:38.045Z,8.63
2019-04-05T10:01:06.144Z,8.98
2019-04-05T10:03:34.329Z,8.30
2019-04-05T10:06:02.451Z,9.07
2019-04-05T10:08:30.647Z,7.72
2019-04-05T10:10:59.110Z,8.38
2019-04-05T10:13:27.286Z,8.80
2019-04-05T10:15:55.370Z,8.55
2019-04-05T10:18:23.324Z,9.02
2019-04-05T10:20:51.390Z,8.23
2019-04-05T10:23:19.476Z,8.30
2019-04-05T10:25:47.769Z,9.60
2019-04-05T10:28:15.880Z,8.50
2019-04-05T10:30:43.703Z,8.73
2019-04-05T10:33:11.453Z,9.35
2019-04-05T10:35:39.644Z,8.07
2019-04-05T10:38:07.693Z,8.10
2019-04-05T10:40:35.782Z,8.18
2019-04-05T10:43:03.546Z,7.37
2019-04-05T10:45:31.644Z,8.18
2019-04-05T10:48:00.715Z,9.10
2019-04-05T10:50:28.177Z,8.20
2019-04-05T10:52:56.241Z,9.55
2019-04-05T10:55:24.711Z,7.85
2019-04-05T10:57:52.466Z,8.73
2019-04-05T11:00:20.548Z,7.20
2019-04-05T11:02:48.761Z,6.62
2019-04-05T11:05:17.017Z,7.03
2019-04-05T11:07:45.082Z,7.72
2019-04-05T11:10:13.128Z,8.10
2019-04-05T11:12:41.215Z,8.43
2019-04-05T11:15:09.748Z,7.50
2019-04-05T11:17:37.947Z,7.00
2019-04-05T11:20:14.930Z,9.80
2019-04-05T11:22:34.626Z,9.00
2019-04-05T11:25:02.425Z,8.88
2019-04-05T11:27:30.441Z,9.40
2019-04-05T11:29:58.515Z,9.77
2019-04-05T11:32:26.674Z,8.15
2019-04-05T11:34:55.052Z,7.62
2019-04-05T11:37:23.146Z,7.95
2019-04-05T11:39:52.008Z,8.48
2019-04-05T11:42:20.101Z,9.23
2019-04-05T11:44:48.215Z,9.88
2019-04-05T11:47:17.249Z,10.23
2019-04-05T11:49:45.926Z,11.40
2019-04-05T11:52:14.039Z,10.23
2019-04-05T11:54:43.799Z,10.63
2019-04-05T11:57:10.283Z,10.68
2019-04-05T11:59:38.371Z,10.02
2019-04-05T12:02:17.059Z,8.20
2019-04-05T12:04:47.089Z,9.65
2019-04-05T12:07:15.142Z,8.80
2019-04-05T12:09:43.390Z,8.02
2019-04-05T12:12:11.476Z,7.90
2019-04-05T12:14:39.578Z,9.10
2019-04-05T12:17:09.724Z,7.25
2019-04-05T12:19:37.989Z,7.93
2019-04-05T12:22:05.371Z,6.75
2019-04-05T12:24:32.715Z,7.80
2019-04-05T12:26:59.609Z,6.70
2019-04-05T12:29:27.713Z,7.32
2019-04-05T12:31:55.939Z,7.50
2019-04-05T12:34:24.089Z,7.82
2019-04-05T12:36:52.572Z,7.12
2019-04-05T12:39:20.911Z,6.07
2019-04-05T12:41:48.988Z,5.95
2019-04-05T12:44:16.851Z,6.30
2019-04-05T12:46:45.943Z,6.32
2019-04-05T12:49:13.382Z,4.90
2019-04-05T12:51:41.070Z,4.70
2019-04-05T12:54:09.132Z,4.70
2019-04-05T12:56:37.195Z,4.78
2019-04-05T12:59:05.073Z,5.22
2019-04-05T13:01:33.454Z,4.47
2019-04-05T13:04:01.604Z,5.10
2019-04-05T13:06:29.730Z,5.05
2019-04-05T13:08:58.020Z,5.15
2019-04-05T13:11:26.976Z,4.35
2019-04-05T13:13:56.359Z,4.20
2019-04-05T13:16:22.781Z,5.43
2019-04-05T13:18:50.956Z,5.60
2019-04-05T13:21:19.113Z,5.20
2019-04-05T13:23:47.251Z,5.07
2019-04-05T13:26:15.254Z,4.93
2019-04-05T13:28:43.351Z,5.03
2019-04-05T13:31:11.424Z,4.95
2019-04-05T13:33:39.493Z,4.43
2019-04-05T13:36:08.568Z,5.12
2019-04-05T13:38:36.313Z,3.62
2019-04-05T13:41:03.194Z,4.10
2019-04-05T13:43:31.972Z,3.87
2019-04-05T13:45:59.649Z,4.22
2019-04-05T13:48:27.699Z,4.05
2019-04-05T13:50:55.764Z,3.83
2019-04-05T13:53:23.663Z,3.97
2019-04-05T13:55:51.738Z,4.07
2019-04-05T13:58:19.607Z,4.35
2019-04-05T14:00:48.849Z,3.70
2019-04-05T14:03:16.253Z,3.55
2019-04-05T14:05:44.408Z,4.28
2019-04-05T14:08:12.690Z,3.58
2019-04-05T14:10:41.935Z,4.00
2019-04-05T14:13:09.974Z,3.60
2019-04-05T14:15:37.356Z,4.20
2019-04-05T14:18:05.497Z,4.05
2019-04-05T14:20:33.561Z,4.10
2019-04-05T14:23:01.639Z,4.00
2019-04-05T14:25:30.245Z,3.17
2019-04-05T14:27:57.288Z,3.70
2019-04-05T14:30:25.352Z,4.05
2019-04-05T14:32:55.593Z,4.30
2019-04-05T14:35:24.478Z,3.62
2019-04-05T14:37:49.440Z,3.95
2019-04-05T14:40:17.509Z,4.22
2019-04-05T14:42:46.100Z,4.12
2019-04-05T14:45:14.475Z,4.18
2019-04-05T14:47:42.546Z,4.53
2019-04-05T14:50:11.211Z,4.75
2019-04-05T14:52:39.833Z,3.90
2019-04-05T14:55:08.550Z,4.40
2019-04-05T14:57:36.701Z,4.62
2019-04-05T15:00:05.149Z,4.05
2019-04-05T15:02:33.325Z,4.30
2019-04-05T15:05:01.423Z,3.67
2019-04-05T15:07:29.679Z,4.20
2019-04-05T15:09:57.449Z,4.20
2019-04-05T15:12:28.778Z,3.75
2019-04-05T15:14:53.906Z,3.58
2019-04-05T15:17:21.658Z,3.83
2019-04-05T15:19:49.771Z,3.55
2019-04-05T15:22:17.918Z,3.75
2019-04-05T15:24:47.232Z,4.18
2019-04-05T15:27:13.787Z,4.25
2019-04-05T15:29:42.054Z,3.90
2019-04-05T15:32:10.196Z,3.90
2019-04-05T15:34:38.356Z,4.43
2019-04-05T15:37:06.623Z,3.42
2019-04-05T15:39:34.723Z,3.50
2019-04-05T15:42:02.971Z,3.70
2019-04-05T15:44:31.454Z,3.47
2019-04-05T15:46:59.642Z,4.28
2019-04-05T15:49:27.675Z,3.80
2019-04-05T15:51:58.721Z,2.95
2019-04-05T15:54:23.882Z,3.70
2019-04-05T15:56:52.053Z,3.50
2019-04-05T15:59:21.829Z,3.62
2019-04-05T16:01:48.295Z,3.22
2019-04-05T16:04:16.408Z,3.53
2019-04-05T16:06:44.395Z,4.00
2019-04-05T16:09:15.878Z,3.47
2019-04-05T16:11:43.711Z,4.07
2019-04-05T16:14:11.552Z,4.03
2019-04-05T16:16:39.659Z,3.95
2019-04-05T16:19:07.523Z,4.85
2019-04-05T16:21:35.092Z,4.18
2019-04-05T16:24:03.133Z,3.90
2019-04-05T16:26:31.225Z,3.95
2019-04-05T16:28:59.311Z,3.65
2019-04-05T16:31:27.398Z,4.22
2019-04-05T16:33:55.448Z,4.15
2019-04-05T16:36:23.505Z,4.07
2019-04-05T16:38:51.610Z,3.87
2019-04-05T16:41:20.116Z,4.57
2019-04-05T16:43:48.363Z,4.75
2019-04-05T16:46:16.537Z,4.25
2019-04-05T16:48:44.617Z,4.37
2019-04-05T16:51:12.444Z,4.37
2019-04-05T16:53:59.458Z,4.90
2019-04-05T16:56:27.842Z,4.70
2019-04-05T16:58:56.219Z,4.18
2019-04-05T17:01:27.304Z,3.97
2019-04-05T17:03:52.277Z,4.15
2019-04-05T17:06:20.350Z,3.97
2019-04-05T17:08:48.429Z,3.97
2019-04-05T17:11:16.805Z,4.78
2019-04-05T17:13:45.069Z,4.65
2019-04-05T17:16:12.833Z,4.22
2019-04-05T17:18:40.683Z,4.95
2019-04-05T17:21:08.754Z,4.93
2019-04-05T17:23:36.526Z,4.45
2019-04-05T17:26:04.759Z,4.75
2019-04-05T17:28:32.904Z,5.10
2019-04-05T17:31:01.074Z,5.00
2019-04-05T17:33:29.641Z,5.30
2019-04-05T17:35:57.417Z,6.22
2019-04-05T17:38:24.951Z,6.80
2019-04-05T17:40:53.027Z,5.15
2019-04-05T17:43:21.138Z,5.10
2019-04-05T17:45:49.265Z,5.10
2019-04-05T17:48:17.449Z,5.28
2019-04-05T17:50:45.541Z,5.57
2019-04-05T17:53:13.597Z,4.82
2019-04-05T17:55:41.552Z,6.35
2019-04-05T17:58:09.670Z,5.78
2019-04-05T18:00:38.226Z,5.60
2019-04-05T18:03:06.785Z,6.78
2019-04-05T18:05:34.853Z,6.40
2019-04-05T18:08:02.966Z,5.45
2019-04-05T18:10:31.358Z,6.60
2019-04-05T18:12:59.462Z,6.65
2019-04-05T18:15:27.441Z,6.65
2019-04-05T18:17:55.814Z,6.10
2019-04-05T18:20:23.921Z,6.60
2019-04-05T18:22:51.378Z,5.97
2019-04-05T18:25:19.509Z,6.22
2019-04-05T18:27:47.521Z,5.72
2019-04-05T18:30:15.572Z,5.62
2019-04-05T18:32:43.533Z,5.78
2019-04-05T18:35:11.553Z,5.82
2019-04-05T18:37:39.682Z,5.70
2019-04-05T18:40:07.869Z,7.15
2019-04-05T18:42:36.478Z,6.62
2019-04-05T18:45:04.721Z,6.60
2019-04-05T18:47:32.925Z,6.82
2019-04-05T18:50:03.303Z,6.90
2019-04-05T18:52:29.262Z,7.22
2019-04-05T18:54:57.459Z,6.93
2019-04-05T18:57:26.028Z,6.25
2019-04-05T18:59:54.111Z,6.93
2019-04-05T19:02:22.764Z,7.00
2019-04-05T19:04:50.851Z,7.40
2019-04-05T19:07:18.291Z,6.68
2019-04-05T19:09:46.647Z,6.50
2019-04-05T19:12:14.621Z,7.78
2019-04-05T19:14:42.797Z,6.87
2019-04-05T19:17:22.911Z,6.80
2019-04-05T19:19:39.244Z,7.45
2019-04-05T19:22:07.832Z,7.28
2019-04-05T19:24:36.289Z,7.30
2019-04-05T19:27:04.392Z,7.30
2019-04-05T19:29:32.447Z,7.32
2019-04-05T19:49:17.484Z,9.48
2019-04-05T19:51:45.597Z,8.15
2019-04-05T19:54:14.033Z,7.65
2019-04-05T19:56:42.196Z,8.55
2019-04-05T19:59:10.375Z,8.85
2019-04-05T20:01:38.625Z,8.68
2019-04-05T20:04:06.698Z,8.82
2019-04-05T20:06:34.450Z,9.82
2019-04-05T20:09:02.871Z,10.13
2019-04-05T20:11:31.008Z,9.43
2019-04-05T20:13:59.054Z,9.02
2019-04-05T20:16:28.653Z,10.77
2019-04-05T20:18:55.349Z,10.13
2019-04-05T20:21:23.176Z,11.55
2019-04-05T20:23:51.305Z,11.35
2019-04-05T20:26:19.467Z,11.70
2019-04-05T20:28:47.875Z,13.00
2019-04-05T20:31:16.006Z,13.05
2019-04-05T20:33:43.963Z,12.68
2019-04-05T20:36:12.246Z,12.93
2019-04-05T20:38:40.538Z,13.80
2019-04-05T20:41:08.685Z,12.98
2019-04-05T20:43:36.765Z,13.35
2019-04-05T20:46:04.974Z,13.85
2019-04-05T20:48:33.150Z,14.95
2019-04-05T20:51:01.235Z,14.52
2019-04-05T20:53:29.405Z,14.50
2019-04-05T20:55:57.281Z,14.50
2019-04-05T20:58:25.484Z,15.93
2019-04-05T21:00:53.665Z,19.07
2019-04-05T21:03:21.901Z,17.20
2019-04-05T21:05:49.897Z,16.40
2019-04-05T21:08:17.958Z,15.00
2019-04-05T21:10:46.039Z,15.43
2019-04-05T21:13:13.892Z,14.93
2019-04-05T21:15:41.777Z,15.77
2019-04-05T21:18:09.847Z,15.48
2019-04-05T21:20:38.027Z,15.40
2019-04-05T21:23:06.230Z,15.00
2019-04-05T21:25:34.427Z,13.90
2019-04-05T21:28:02.550Z,15.98
2019-04-05T21:30:30.685Z,14.45
2019-04-05T21:32:58.870Z,16.62
2019-04-05T21:35:27.588Z,16.08
2019-04-05T21:37:56.338Z,15.63
2019-04-05T21:40:24.484Z,15.70
2019-04-05T21:42:52.391Z,14.43
2019-04-05T21:45:20.962Z,15.43
2019-04-05T21:47:49.176Z,14.93
2019-04-05T21:50:17.975Z,15.77
2019-04-05T21:52:46.237Z,15.77
2019-04-05T21:55:14.475Z,15.20
2019-04-05T21:57:42.968Z,16.60
2019-04-05T22:00:15.862Z,16.62
2019-04-05T22:02:44.022Z,15.27
2019-04-05T22:05:12.249Z,16.10
2019-04-05T22:07:41.421Z,18.02
2019-04-05T22:10:09.671Z,16.02
2019-04-05T22:12:41.725Z,17.73
2019-04-05T22:15:09.644Z,17.20
2019-04-05T22:17:37.901Z,16.25
2019-04-05T22:20:06.767Z,17.62
2019-04-05T22:22:35.106Z,17.27
2019-04-05T22:25:03.773Z,17.52
2019-04-05T22:27:32.061Z,17.17
2019-04-05T22:30:00.366Z,17.77
2019-04-05T22:32:28.807Z,18.77
2019-04-05T22:34:56.747Z,16.15
2019-04-05T22:37:25.259Z,17.52
2019-04-05T22:39:54.037Z,17.60
2019-04-05T22:42:22.313Z,18.42
2019-04-05T22:44:51.115Z,19.12
2019-04-05T22:47:19.395Z,18.77
2019-04-05T22:49:47.624Z,19.75
2019-04-05T22:52:15.320Z,17.83
2019-04-05T22:54:43.395Z,19.25
2019-04-05T22:57:11.426Z,19.00
2019-04-05T22:59:39.292Z,18.83
2019-04-05T23:02:07.465Z,19.48
2019-04-05T23:04:36.244Z,18.62
2019-04-05T23:07:05.575Z,18.33
2019-04-05T23:09:34.007Z,18.87
2019-04-05T23:12:02.261Z,18.40
2019-04-05T23:14:30.330Z,19.02
2019-04-05T23:16:58.592Z,18.77
2019-04-05T23:19:27.354Z,21.05
2019-04-05T23:21:55.808Z,20.17
2019-04-05T23:24:24.064Z,21.05
2019-04-05T23:26:51.989Z,20.25
2019-04-05T23:29:21.091Z,21.25
2019-04-05T23:31:49.029Z,21.60
2019-04-05T23:34:17.293Z,20.50
2019-04-05T23:36:46.169Z,22.15
2019-04-05T23:39:14.387Z,20.52
2019-04-05T23:41:42.262Z,21.33
2019-04-05T23:44:10.592Z,22.55
2019-04-05T23:46:39.715Z,23.73
2019-04-05T23:49:08.055Z,21.33
2019-04-05T23:51:36.292Z,23.48
2019-04-05T23:54:05.098Z,22.75
2019-04-05T23:56:32.991Z,22.92
2019-04-05T23:59:01.220Z,21.48
